Time;durP1;ratioP1;P1;durP2;ratioP2;P2;SDS_P1;SDS_P2;PMS_P1;PMS_P2;Temp;Humidity;BMP_temperature;BMP_pressure;BME280_temperature;BME280_humidity;BME280_pressure;Samples;Min_cycle;Max_cycle;Signal;HPM_P1;HPM_P2
2021/08/25 00:01:01;;;;;;;5.00;3.70;;;14.20;39.80;;;;;;5076317;28;20484;-77
2021/08/25 00:03:26;;;;;;;6.40;3.75;;;14.30;40.20;;;;;;5088753;28;20707;-77
2021/08/25 00:05:53;;;;;;;6.72;3.90;;;14.20;40.60;;;;;;5089566;28;20928;-76
2021/08/25 00:08:20;;;;;;;10.10;4.30;;;14.10;42.00;;;;;;5091018;28;20402;-76
2021/08/25 00:10:45;;;;;;;6.70;4.05;;;14.30;42.20;;;;;;5092284;28;20869;-75
2021/08/25 00:13:11;;;;;;;10.38;4.13;;;14.30;41.90;;;;;;5073482;28;20386;-77
2021/08/25 00:15:38;;;;;;;5.50;4.00;;;14.30;42.50;;;;;;5094254;28;20407;-77
2021/08/25 00:18:05;;;;;;;6.90;3.78;;;14.20;43.30;;;;;;5098048;28;20424;-76
2021/08/25 00:20:31;;;;;;;7.30;4.00;;;14.10;43.90;;;;;;5079467;28;20423;-77
2021/08/25 00:22:56;;;;;;;6.57;3.80;;;14.10;44.20;;;;;;5097424;28;20402;-77
2021/08/25 00:25:22;;;;;;;7.72;4.50;;;14.00;44.60;;;;;;5094790;28;20374;-75
2021/08/25 00:27:48;;;;;;;8.50;4.15;;;14.00;45.00;;;;;;5094372;28;20405;-75
2021/08/25 00:30:14;;;;;;;5.93;4.00;;;13.90;45.50;;;;;;5093347;28;20370;-77
2021/08/25 00:32:39;;;;;;;5.50;3.67;;;13.80;45.70;;;;;;5090383;28;20833;-75
2021/08/25 00:35:05;;;;;;;7.03;4.40;;;13.80;46.10;;;;;;5073144;28;20391;-76
2021/08/25 00:37:32;;;;;;;7.22;4.03;;;13.70;46.70;;;;;;5091207;28;20393;-75
2021/08/25 00:39:57;;;;;;;8.57;3.95;;;13.80;46.70;;;;;;5084213;28;20463;-76
2021/08/25 00:42:23;;;;;;;7.07;4.07;;;13.70;47.40;;;;;;5071266;28;20783;-75
2021/08/25 00:44:49;;;;;;;8.10;3.97;;;13.70;47.70;;;;;;5071588;28;20438;-74
2021/08/25 00:47:15;;;;;;;8.43;4.40;;;13.60;48.10;;;;;;5071418;28;20561;-76
2021/08/25 00:49:40;;;;;;;6.80;4.35;;;13.60;48.70;;;;;;5082074;28;20393;-76
2021/08/25 00:52:06;;;;;;;7.60;4.20;;;13.50;49.20;;;;;;5091402;28;20382;-76
2021/08/25 00:54:31;;;;;;;7.10;4.33;;;13.50;49.60;;;;;;5093906;28;20453;-76
2021/08/25 00:56:57;;;;;;;9.20;4.83;;;13.50;50.20;;;;;;5077156;28;20390;-75
2021/08/25 00:59:23;;;;;;;9.30;4.10;;;13.50;50.00;;;;;;5092395;28;20433;-75
2021/08/25 01:02:15;;;;;;;10.43;4.47;;;13.50;49.90;;;;;;5091089;28;20386;-75
2021/08/25 01:04:50;;;;;;;6.80;4.07;;;13.50;50.00;;;;;;5090917;28;20576;-75
2021/08/25 01:07:16;;;;;;;7.18;4.40;;;13.50;49.80;;;;;;5091067;28;20389;-75
2021/08/25 01:09:42;;;;;;;6.93;4.40;;;13.40;49.60;;;;;;5091081;28;20981;-75
2021/08/25 01:12:09;;;;;;;10.40;4.78;;;13.50;50.00;;;;;;5072951;28;20465;-76
2021/08/25 01:14:35;;;;;;;11.30;4.70;;;13.50;49.40;;;;;;5091035;28;20870;-75
2021/08/25 01:17:03;;;;;;;11.13;4.40;;;13.50;49.10;;;;;;5091310;28;20397;-76
2021/08/25 01:19:31;;;;;;;11.05;4.13;;;13.40;49.30;;;;;;5092205;28;20858;-75
2021/08/25 01:21:57;;;;;;;9.30;4.30;;;13.50;49.50;;;;;;5093577;28;20744;-74
2021/08/25 01:24:23;;;;;;;7.10;4.30;;;13.40;49.90;;;;;;5095472;28;20488;-75
2021/08/25 01:26:52;;;;;;;9.60;4.30;;;13.40;49.60;;;;;;5092401;28;20393;-75
2021/08/25 01:29:24;;;;;;;8.13;4.03;;;13.40;50.00;;;;;;5091932;28;20376;-75
2021/08/25 01:31:51;;;;;;;5.93;4.20;;;13.40;49.50;;;;;;5091044;28;20438;-76
2021/08/25 01:34:16;;;;;;;12.20;4.40;;;13.30;50.70;;;;;;5091021;28;20432;-75
2021/08/25 01:36:43;;;;;;;10.83;4.47;;;13.30;51.60;;;;;;5075995;28;20872;-74
2021/08/25 01:39:08;;;;;;;13.88;4.50;;;13.40;50.20;;;;;;5070809;28;20384;-75
2021/08/25 01:41:34;;;;;;;7.07;4.55;;;13.40;50.20;;;;;;5090610;28;20435;-75
2021/08/25 01:44:01;;;;;;;8.30;4.57;;;13.40;49.60;;;;;;5089963;28;20426;-75
2021/08/25 01:46:29;;;;;;;7.50;4.10;;;13.30;49.60;;;;;;5090205;28;20394;-76
2021/08/25 01:48:56;;;;;;;9.02;4.50;;;13.30;49.90;;;;;;5090117;28;20380;-75
2021/08/25 01:51:26;;;;;;;8.75;4.90;;;13.40;49.50;;;;;;5072426;28;20841;-75
2021/08/25 01:53:52;;;;;;;7.45;4.28;;;13.40;49.90;;;;;;5090306;28;20381;-76
2021/08/25 01:56:18;;;;;;;7.65;4.43;;;13.30;50.30;;;;;;5090785;28;20496;-76
2021/08/25 01:58:43;;;;;;;9.20;5.20;;;13.30;50.90;;;;;;5090161;28;20437;-75
2021/08/25 02:01:09;;;;;;;7.22;4.35;;;13.30;50.30;;;;;;5090212;28;20389;-76
2021/08/25 02:03:34;;;;;;;7.67;4.87;;;13.20;51.00;;;;;;5090468;28;20767;-77
2021/08/25 02:06:00;;;;;;;10.27;4.53;;;13.30;50.70;;;;;;5090450;28;20389;-75
2021/08/25 02:08:25;;;;;;;7.93;4.90;;;13.40;49.10;;;;;;5071903;28;20463;-75
2021/08/25 02:10:51;;;;;;;8.73;4.17;;;13.40;48.40;;;;;;5090018;28;20451;-75
2021/08/25 02:13:17;;;;;;;9.90;4.85;;;13.40;49.00;;;;;;5090136;28;20380;-77
2021/08/25 02:15:42;;;;;;;9.40;4.70;;;13.30;49.50;;;;;;5089884;28;20386;-75
2021/08/25 02:18:08;;;;;;;8.50;4.78;;;13.30;49.40;;;;;;5089519;28;20402;-75
2021/08/25 02:20:33;;;;;;;9.63;5.03;;;13.20;49.60;;;;;;5089850;28;20398;-75
2021/08/25 02:22:59;;;;;;;8.77;4.60;;;13.10;50.60;;;;;;5089989;28;21055;-74
2021/08/25 02:25:24;;;;;;;8.43;4.67;;;13.00;50.40;;;;;;5090062;28;20435;-76
2021/08/25 02:27:50;;;;;;;9.33;4.47;;;13.10;49.90;;;;;;5089590;28;20728;-75
2021/08/25 02:30:15;;;;;;;9.17;5.20;;;13.10;49.50;;;;;;5092668;28;20802;-75
2021/08/25 02:32:42;;;;;;;9.68;4.50;;;13.10;49.60;;;;;;5092635;28;20413;-76
2021/08/25 02:35:09;;;;;;;8.60;5.10;;;13.10;49.80;;;;;;5092516;28;20435;-75
2021/08/25 02:37:35;;;;;;;10.10;4.90;;;13.00;50.10;;;;;;5073380;28;20697;-75
2021/08/25 02:40:01;;;;;;;7.75;4.65;;;12.90;51.30;;;;;;5081494;28;20382;-75
2021/08/25 02:42:27;;;;;;;7.80;5.10;;;13.00;50.40;;;;;;5093646;28;20412;-76
2021/08/25 02:44:52;;;;;;;9.65;5.00;;;13.10;50.90;;;;;;5093752;28;20407;-75
2021/08/25 02:47:18;;;;;;;9.03;5.20;;;13.10;50.60;;;;;;5094136;28;20461;-74
2021/08/25 02:49:43;;;;;;;10.40;4.90;;;13.10;50.80;;;;;;5093523;28;20401;-74
2021/08/25 02:52:09;;;;;;;11.70;4.20;;;13.00;51.20;;;;;;5093729;28;20412;-74
2021/08/25 02:54:34;;;;;;;8.67;5.00;;;13.00;51.40;;;;;;5093959;28;20863;-74
2021/08/25 02:57:00;;;;;;;8.93;4.72;;;13.00;51.60;;;;;;5093334;28;20750;-74
2021/08/25 02:59:25;;;;;;;8.35;5.03;;;13.00;52.20;;;;;;5094108;28;20747;-75
2021/08/25 03:01:51;;;;;;;10.85;5.10;;;12.90;52.70;;;;;;5092861;28;20778;-74
2021/08/25 03:04:16;;;;;;;11.30;5.70;;;12.80;54.00;;;;;;5093330;28;20436;-75
2021/08/25 03:06:42;;;;;;;8.10;4.60;;;12.70;55.00;;;;;;5093173;28;20409;-75
2021/08/25 03:09:08;;;;;;;11.53;4.90;;;12.60;56.10;;;;;;5093095;28;20381;-75
2021/08/25 03:11:34;;;;;;;8.00;5.07;;;12.30;58.00;;;;;;5093177;28;20464;-75
2021/08/25 03:14:00;;;;;;;8.30;4.97;;;12.30;60.70;;;;;;5093002;28;20396;-78
2021/08/25 03:16:25;;;;;;;8.40;5.10;;;12.40;58.90;;;;;;5092917;28;20394;-76
2021/08/25 03:18:51;;;;;;;8.70;5.50;;;12.30;58.50;;;;;;5092747;28;20901;-75
2021/08/25 03:21:16;;;;;;;10.15;5.05;;;12.10;60.10;;;;;;5076628;28;20394;-75
2021/08/25 03:23:42;;;;;;;11.45;5.43;;;12.10;62.40;;;;;;5093318;28;20486;-75
2021/08/25 03:26:08;;;;;;;10.27;5.80;;;12.20;60.00;;;;;;5093259;28;20375;-75
2021/08/25 03:28:33;;;;;;;9.70;5.33;;;12.40;58.00;;;;;;5093100;28;20484;-75
2021/08/25 03:30:59;;;;;;;9.43;4.90;;;12.60;55.70;;;;;;5092799;28;20386;-75
2021/08/25 03:33:24;;;;;;;10.23;5.40;;;12.60;55.20;;;;;;5093876;28;20459;-76
2021/08/25 03:35:50;;;;;;;9.37;4.93;;;12.50;55.70;;;;;;5087226;28;20518;-74
2021/08/25 03:38:16;;;;;;;11.00;5.50;;;12.40;56.30;;;;;;5072335;28;20721;-76
2021/08/25 03:40:42;;;;;;;7.65;4.85;;;12.10;59.00;;;;;;5084880;28;20390;-74
2021/08/25 03:43:07;;;;;;;11.77;5.80;;;12.00;61.90;;;;;;5092522;28;20496;-76
2021/08/25 03:45:33;;;;;;;8.13;5.10;;;11.80;63.20;;;;;;5092613;28;20441;-75
2021/08/25 03:47:59;;;;;;;6.83;4.83;;;11.80;65.20;;;;;;5078433;28;20909;-75
2021/08/25 03:50:24;;;;;;;16.43;5.50;;;11.90;64.60;;;;;;5097295;28;20440;-76
2021/08/25 03:52:50;;;;;;;10.77;5.20;;;12.20;60.40;;;;;;5094710;28;20489;-76
2021/08/25 03:55:16;;;;;;;7.37;5.40;;;12.10;60.70;;;;;;5092647;28;20386;-76
2021/08/25 03:57:41;;;;;;;9.87;5.27;;;12.10;59.90;;;;;;5092511;28;20386;-75
2021/08/25 04:00:07;;;;;;;8.93;5.43;;;12.10;59.90;;;;;;5092548;28;20920;-75
2021/08/25 04:02:33;;;;;;;12.10;5.80;;;12.30;58.60;;;;;;5092628;28;20755;-76
2021/08/25 04:04:58;;;;;;;10.13;5.90;;;12.30;59.00;;;;;;5075077;28;20378;-76
2021/08/25 04:07:24;;;;;;;8.97;5.50;;;12.10;58.90;;;;;;5074589;28;20378;-77
2021/08/25 04:09:49;;;;;;;10.60;6.20;;;11.90;61.70;;;;;;5094193;28;20411;-76
2021/08/25 04:12:15;;;;;;;10.70;5.80;;;11.90;63.50;;;;;;5074986;28;20378;-76
2021/08/25 04:14:41;;;;;;;13.23;6.03;;;12.00;63.20;;;;;;5092432;28;20533;-74
2021/08/25 04:17:07;;;;;;;8.27;5.93;;;12.00;62.20;;;;;;5092089;28;20388;-75
2021/08/25 04:19:33;;;;;;;11.02;6.20;;;12.00;61.90;;;;;;5092040;28;20416;-75
2021/08/25 04:21:59;;;;;;;11.07;5.80;;;11.80;64.60;;;;;;5091867;28;20378;-76
2021/08/25 04:24:25;;;;;;;11.67;5.60;;;12.10;61.60;;;;;;5092276;28;20815;-76
2021/08/25 04:26:50;;;;;;;9.43;5.57;;;12.10;61.20;;;;;;5092192;28;20403;-76
2021/08/25 04:29:16;;;;;;;12.53;5.70;;;12.10;60.30;;;;;;5091296;28;20401;-76
2021/08/25 04:31:41;;;;;;;13.17;7.97;;;12.30;58.90;;;;;;5092123;28;20739;-76
2021/08/25 04:34:07;;;;;;;11.13;6.90;;;12.20;59.40;;;;;;5093566;28;20378;-75
2021/08/25 04:36:32;;;;;;;10.47;6.60;;;12.30;58.90;;;;;;5080608;28;20569;-76
2021/08/25 04:38:58;;;;;;;12.15;6.63;;;12.20;59.00;;;;;;5054310;28;20382;-76
2021/08/25 04:41:24;;;;;;;12.18;7.15;;;12.10;61.30;;;;;;5092005;28;20439;-76
2021/08/25 04:43:49;;;;;;;8.60;5.78;;;12.00;63.10;;;;;;5092449;28;20870;-77
2021/08/25 04:46:16;;;;;;;12.93;6.73;;;11.80;64.40;;;;;;5091858;28;20775;-77
2021/08/25 04:48:42;;;;;;;16.48;7.15;;;11.90;64.60;;;;;;5091632;28;20382;-77
2021/08/25 04:51:10;;;;;;;12.52;6.57;;;11.80;66.30;;;;;;5091681;28;20751;-76
2021/08/25 04:53:35;;;;;;;13.90;6.10;;;11.80;65.60;;;;;;5092256;28;20378;-77
2021/08/25 04:56:01;;;;;;;17.27;7.13;;;11.90;64.00;;;;;;5074843;28;20412;-76
2021/08/25 04:58:27;;;;;;;12.75;6.32;;;12.00;62.80;;;;;;5072805;28;20402;-76
2021/08/25 05:00:52;;;;;;;9.73;5.90;;;12.10;62.80;;;;;;5091287;28;20385;-75
2021/08/25 05:03:18;;;;;;;12.30;6.10;;;12.20;62.00;;;;;;5073316;28;20430;-76
2021/08/25 05:05:43;;;;;;;13.70;6.97;;;12.20;59.80;;;;;;5091752;28;20378;-77
2021/08/25 05:08:09;;;;;;;12.43;6.70;;;12.30;59.40;;;;;;5092236;28;20386;-76
2021/08/25 05:10:34;;;;;;;12.60;6.70;;;12.20;60.10;;;;;;5091435;28;20809;-76
2021/08/25 05:13:00;;;;;;;10.03;6.20;;;12.10;61.80;;;;;;5092004;28;20419;-78
2021/08/25 05:15:26;;;;;;;14.27;7.03;;;12.20;61.40;;;;;;5092894;28;20382;-76
2021/08/25 05:17:51;;;;;;;10.43;6.80;;;12.30;61.10;;;;;;5073036;28;20394;-77
2021/08/25 05:20:17;;;;;;;13.43;6.20;;;12.40;59.20;;;;;;5093022;28;20446;-77
2021/08/25 05:22:43;;;;;;;12.40;7.10;;;12.40;59.50;;;;;;5073357;28;20893;-76
2021/08/25 05:25:09;;;;;;;13.93;6.75;;;12.50;58.30;;;;;;5092612;28;20407;-77
2021/08/25 05:27:34;;;;;;;12.40;7.20;;;12.60;57.60;;;;;;5093652;28;20413;-76
2021/08/25 05:30:00;;;;;;;80.47;13.77;;;12.70;57.50;;;;;;5091065;28;20370;-77
2021/08/25 05:32:25;;;;;;;25.13;7.90;;;12.70;56.70;;;;;;5072789;28;20481;-76
2021/08/25 05:34:51;;;;;;;12.00;6.90;;;12.80;56.20;;;;;;5090933;28;20878;-76
2021/08/25 05:37:17;;;;;;;13.15;6.70;;;12.80;56.30;;;;;;5073235;28;20983;-74
2021/08/25 05:39:42;;;;;;;21.80;8.10;;;13.10;53.60;;;;;;5076034;28;20808;-76
2021/08/25 05:42:08;;;;;;;11.97;6.33;;;13.20;51.90;;;;;;5090480;28;20509;-76
2021/08/25 05:44:34;;;;;;;11.90;7.05;;;13.10;53.60;;;;;;5091568;28;20831;-76
2021/08/25 05:46:59;;;;;;;14.32;7.82;;;13.20;52.60;;;;;;5091434;28;20905;-75
2021/08/25 05:49:25;;;;;;;15.20;7.57;;;13.20;52.20;;;;;;5090673;28;20463;-75
2021/08/25 05:51:50;;;;;;;13.27;7.00;;;13.30;52.60;;;;;;5091716;28;20457;-76
2021/08/25 05:54:16;;;;;;;12.83;7.90;;;13.50;51.30;;;;;;5091799;28;20382;-76
2021/08/25 05:56:41;;;;;;;11.97;6.80;;;13.60;50.50;;;;;;5074745;28;20520;-76
2021/08/25 05:59:07;;;;;;;13.18;7.32;;;13.60;51.20;;;;;;5090558;28;20508;-75
2021/08/25 06:01:33;;;;;;;16.38;8.60;;;13.70;50.50;;;;;;5091690;28;20382;-76
2021/08/25 06:03:59;;;;;;;15.77;8.07;;;13.80;49.50;;;;;;5093684;28;20410;-76
2021/08/25 06:06:31;;;;;;;12.97;7.53;;;13.80;49.80;;;;;;5097246;28;20715;-74
2021/08/25 06:08:57;;;;;;;13.93;6.80;;;14.10;47.20;;;;;;5095442;28;20498;-77
2021/08/25 06:11:24;;;;;;;13.82;7.10;;;14.30;45.30;;;;;;5096730;28;20866;-76
2021/08/25 06:13:49;;;;;;;10.93;7.20;;;14.50;43.80;;;;;;5094504;28;20440;-75
2021/08/25 06:16:15;;;;;;;12.43;6.90;;;14.60;43.20;;;;;;5077140;28;20796;-76
2021/08/25 06:18:40;;;;;;;14.27;7.67;;;14.60;43.60;;;;;;5075845;28;20393;-75
2021/08/25 06:21:06;;;;;;;15.60;7.80;;;14.80;42.80;;;;;;5091129;28;20751;-75
2021/08/25 06:23:31;;;;;;;17.40;7.37;;;14.90;42.50;;;;;;5095014;28;20473;-78
2021/08/25 06:25:57;;;;;;;18.75;8.50;;;15.00;41.50;;;;;;5093332;28;20405;-77
2021/08/25 06:28:22;;;;;;;12.02;8.00;;;15.10;41.50;;;;;;5094707;28;20377;-77
2021/08/25 06:30:48;;;;;;;12.73;7.30;;;15.10;41.60;;;;;;5095232;28;20712;-77
2021/08/25 06:33:13;;;;;;;16.67;7.93;;;15.20;41.70;;;;;;5088684;28;20857;-77
2021/08/25 06:35:39;;;;;;;14.57;7.83;;;15.30;41.40;;;;;;5064055;28;20401;-77
2021/08/25 06:38:05;;;;;;;14.25;7.55;;;15.40;39.90;;;;;;5095411;28;20547;-77
2021/08/25 06:40:32;;;;;;;15.93;7.80;;;15.50;40.10;;;;;;5087888;28;20403;-77
2021/08/25 06:42:58;;;;;;;12.40;6.63;;;15.80;37.50;;;;;;5077845;28;20440;-77
2021/08/25 06:45:24;;;;;;;12.85;7.60;;;16.00;36.80;;;;;;5104203;28;20875;-77
2021/08/25 06:47:49;;;;;;;15.10;7.97;;;16.00;36.40;;;;;;5095200;28;20384;-77
2021/08/25 06:50:15;;;;;;;15.00;7.10;;;15.90;36.30;;;;;;5095058;28;20385;-77
2021/08/25 06:52:41;;;;;;;14.73;7.15;;;16.10;35.70;;;;;;5093938;28;20765;-76
2021/08/25 06:55:07;;;;;;;13.85;7.50;;;16.40;34.00;;;;;;5074821;28;20386;-76
2021/08/25 06:57:33;;;;;;;16.48;8.13;;;16.50;33.50;;;;;;5075204;28;20743;-77
2021/08/25 06:59:58;;;;;;;13.47;7.70;;;16.30;33.80;;;;;;5093246;28;20393;-76
2021/08/25 07:02:24;;;;;;;13.77;6.70;;;16.20;33.40;;;;;;5093465;28;20485;-76
2021/08/25 07:04:49;;;;;;;10.32;5.55;;;16.20;33.90;;;;;;5093323;28;20476;-77
2021/08/25 07:07:15;;;;;;;12.23;6.28;;;16.50;30.40;;;;;;5095571;28;20374;-77
2021/08/25 07:09:41;;;;;;;12.50;5.90;;;16.70;30.10;;;;;;5104186;28;20475;-76
2021/08/25 07:12:07;;;;;;;11.25;5.45;;;16.90;29.10;;;;;;5098074;28;20374;-77
2021/08/25 07:14:33;;;;;;;11.68;5.97;;;16.90;27.90;;;;;;5093579;28;20447;-76
2021/08/25 07:16:58;;;;;;;12.70;6.18;;;17.00;28.10;;;;;;5074903;28;20818;-76
2021/08/25 07:19:24;;;;;;;15.00;6.40;;;16.90;28.60;;;;;;5094271;28;20394;-74
2021/08/25 07:21:49;;;;;;;16.80;6.57;;;16.90;29.30;;;;;;5093571;28;20412;-76
2021/08/25 07:24:15;;;;;;;14.50;7.13;;;17.00;30.00;;;;;;5075677;28;20476;-77
2021/08/25 07:26:41;;;;;;;11.40;6.13;;;17.10;29.40;;;;;;5093622;28;20386;-76
2021/08/25 07:29:06;;;;;;;12.27;6.47;;;17.20;29.10;;;;;;5093430;28;20394;-75
2021/08/25 07:31:32;;;;;;;13.38;6.30;;;17.40;28.60;;;;;;5094651;28;20895;-76
2021/08/25 07:33:58;;;;;;;16.42;5.78;;;17.50;28.10;;;;;;5095682;28;20378;-76
2021/08/25 07:36:24;;;;;;;11.90;6.03;;;17.50;27.10;;;;;;5065963;28;20483;-77
2021/08/25 07:38:50;;;;;;;12.27;5.60;;;17.40;26.50;;;;;;5088207;28;20752;-75
2021/08/25 07:41:16;;;;;;;12.43;6.65;;;17.40;27.40;;;;;;5063340;28;20389;-76
2021/08/25 07:43:42;;;;;;;18.35;6.80;;;17.60;26.00;;;;;;5096813;28;20409;-77
2021/08/25 07:46:07;;;;;;;10.70;6.40;;;17.70;26.20;;;;;;5095831;28;20390;-77
2021/08/25 07:48:33;;;;;;;9.17;5.60;;;17.80;25.90;;;;;;5093932;28;20382;-76
2021/08/25 07:50:59;;;;;;;10.47;5.40;;;17.80;26.80;;;;;;5096505;28;20464;-77
2021/08/25 07:53:24;;;;;;;14.53;6.40;;;17.80;26.70;;;;;;5097691;28;20445;-76
2021/08/25 07:55:50;;;;;;;12.48;6.40;;;18.00;27.50;;;;;;5097962;28;20397;-77
2021/08/25 07:58:15;;;;;;;15.43;6.40;;;18.00;27.60;;;;;;5092713;28;20738;-77
2021/08/25 08:00:41;;;;;;;13.37;6.57;;;18.20;26.40;;;;;;5088157;28;20749;-76
2021/08/25 08:03:07;;;;;;;9.83;5.60;;;18.10;26.40;;;;;;5091416;28;20409;-77
2021/08/25 08:05:33;;;;;;;14.07;6.70;;;18.30;26.40;;;;;;5102701;28;20394;-76
2021/08/25 08:07:59;;;;;;;15.37;7.00;;;18.30;26.80;;;;;;5095353;28;20378;-76
2021/08/25 08:10:24;;;;;;;17.27;6.73;;;18.30;27.20;;;;;;5093402;28;20394;-76
2021/08/25 08:12:50;;;;;;;11.80;5.67;;;18.40;27.00;;;;;;5092483;28;20485;-75
2021/08/25 08:15:16;;;;;;;19.00;6.67;;;18.70;27.50;;;;;;5096185;28;20401;-77
2021/08/25 08:17:45;;;;;;;11.93;6.27;;;18.90;26.10;;;;;;5092023;28;20413;-77
2021/08/25 08:20:15;;;;;;;14.63;6.22;;;19.00;25.10;;;;;;5094033;28;20469;-76
2021/08/25 08:22:42;;;;;;;12.80;6.68;;;19.00;25.00;;;;;;5092133;28;20463;-75
2021/08/25 08:25:07;;;;;;;16.88;7.63;;;19.10;26.00;;;;;;5083348;28;20403;-75
2021/08/25 08:27:33;;;;;;;12.85;6.30;;;19.20;25.50;;;;;;5085033;28;20477;-76
2021/08/25 08:30:00;;;;;;;10.57;6.30;;;19.20;24.70;;;;;;5091425;28;20390;-76
2021/08/25 08:32:26;;;;;;;12.70;6.20;;;19.20;24.10;;;;;;5091796;28;20480;-76
2021/08/25 08:34:52;;;;;;;15.63;6.53;;;19.30;23.00;;;;;;5091063;28;20441;-77
2021/08/25 08:37:18;;;;;;;10.70;5.90;;;19.30;23.70;;;;;;5072254;28;20886;-75
2021/08/25 08:39:44;;;;;;;11.07;5.72;;;19.40;23.80;;;;;;5083176;28;20409;-79
2021/08/25 08:42:34;;;;;;;11.83;5.47;;;19.40;24.30;;;;;;5071814;28;20386;-77
2021/08/25 08:45:02;;;;;;;10.48;5.65;;;19.50;23.80;;;;;;5091667;28;20443;-76
2021/08/25 08:47:29;;;;;;;16.27;6.80;;;19.60;23.50;;;;;;5093164;28;20457;-75
2021/08/25 08:50:00;;;;;;;13.57;6.20;;;19.60;22.60;;;;;;5077326;28;20483;-76
2021/08/25 08:52:26;;;;;;;9.60;5.30;;;19.70;23.80;;;;;;5059387;28;20403;-76
2021/08/25 08:54:54;;;;;;;13.15;6.57;;;19.90;23.30;;;;;;5091509;28;20386;-76
2021/08/25 08:57:20;;;;;;;10.57;6.50;;;19.90;22.40;;;;;;5090986;28;20527;-77
2021/08/25 08:59:46;;;;;;;13.73;5.60;;;20.00;22.30;;;;;;5090749;28;20834;-76
2021/08/25 09:02:13;;;;;;;11.30;5.30;;;20.10;22.20;;;;;;5091033;28;20893;-75
2021/08/25 09:04:46;;;;;;;8.40;4.87;;;20.10;21.40;;;;;;5090586;28;20996;-76
2021/08/25 09:07:19;;;;;;;9.63;4.50;;;20.30;18.50;;;;;;5087658;28;20386;-75
2021/08/25 09:09:58;;;;;;;7.32;4.97;;;20.40;16.80;;;;;;5089169;28;20901;-76
2021/08/25 09:12:24;;;;;;;8.32;4.78;;;20.60;17.30;;;;;;5090808;28;20408;-75
2021/08/25 09:14:51;;;;;;;7.97;4.85;;;20.70;17.80;;;;;;5090017;28;20437;-77
2021/08/25 09:17:30;;;;;;;8.10;5.15;;;20.70;18.00;;;;;;5089952;28;20488;-74
2021/08/25 09:20:11;;;;;;;7.65;4.60;;;20.60;17.30;;;;;;5067675;28;20609;-76
2021/08/25 09:22:37;;;;;;;6.50;4.40;;;20.70;17.50;;;;;;5081741;28;20402;-76
2021/08/25 09:25:04;;;;;;;9.40;4.37;;;20.70;17.10;;;;;;5091365;28;20408;-75
2021/08/25 09:27:30;;;;;;;7.40;4.53;;;20.60;15.00;;;;;;5092924;28;20397;-75
2021/08/25 09:29:58;;;;;;;11.38;5.10;;;20.50;15.80;;;;;;5091507;28;20420;-75
2021/08/25 09:32:28;;;;;;;9.23;4.32;;;20.60;15.80;;;;;;5092157;28;20842;-76
2021/08/25 09:35:01;;;;;;;8.95;4.93;;;20.40;17.20;;;;;;5086446;28;20421;-76
2021/08/25 09:37:29;;;;;;;7.17;5.00;;;20.40;17.60;;;;;;5086091;28;20390;-76
2021/08/25 09:40:00;;;;;;;11.70;4.93;;;20.40;17.20;;;;;;5089275;28;20397;-75
2021/08/25 09:42:39;;;;;;;11.90;4.90;;;20.70;17.10;;;;;;5084650;28;20599;-76
2021/08/25 09:45:07;;;;;;;9.38;4.78;;;20.80;16.10;;;;;;5081191;28;20487;-76
2021/08/25 09:47:47;;;;;;;10.73;4.40;;;21.00;17.00;;;;;;5090314;28;20928;-77
2021/08/25 09:50:15;;;;;;;8.40;4.30;;;20.70;15.90;;;;;;5095184;28;20394;-76
2021/08/25 09:52:42;;;;;;;9.15;4.72;;;20.70;14.80;;;;;;5093939;28;20473;-74
2021/08/25 09:55:07;;;;;;;9.18;4.30;;;20.70;15.30;;;;;;5089842;28;20446;-75
2021/08/25 09:57:37;;;;;;;6.20;4.00;;;20.70;15.10;;;;;;5081233;28;20882;-75
2021/08/25 10:00:04;;;;;;;7.93;4.40;;;20.70;15.30;;;;;;5090734;28;20402;-75
2021/08/25 10:02:30;;;;;;;8.45;4.70;;;20.80;15.60;;;;;;5089353;28;20466;-76
2021/08/25 10:04:56;;;;;;;8.45;4.60;;;20.90;16.10;;;;;;5082736;28;20474;-77
2021/08/25 10:07:21;;;;;;;10.38;4.30;;;20.80;16.20;;;;;;5098985;28;20397;-76
2021/08/25 10:09:47;;;;;;;7.90;4.80;;;20.90;16.10;;;;;;5093513;28;20457;-76
2021/08/25 10:12:14;;;;;;;7.63;4.80;;;21.00;16.20;;;;;;5090753;28;20425;-77
2021/08/25 10:14:39;;;;;;;7.32;4.30;;;21.10;15.00;;;;;;5083670;28;20479;-76
2021/08/25 10:17:05;;;;;;;11.57;5.25;;;21.10;14.80;;;;;;5073062;28;20418;-74
2021/08/25 10:19:41;;;;;;;11.53;5.23;;;21.20;14.20;;;;;;5070229;28;20483;-76
2021/08/25 10:22:16;;;;;;;9.20;5.00;;;21.20;14.30;;;;;;5082807;28;20855;-75
2021/08/25 10:24:54;;;;;;;8.38;4.93;;;21.10;15.00;;;;;;5090193;28;20374;-76
2021/08/25 10:27:21;;;;;;;8.43;4.90;;;21.30;15.00;;;;;;5091175;28;20433;-76
2021/08/25 10:30:04;;;;;;;13.00;5.50;;;21.30;14.60;;;;;;5092278;28;20910;-78
2021/08/25 10:32:51;;;;;;;9.85;5.30;;;21.40;14.60;;;;;;5095160;28;20464;-76
2021/08/25 10:35:22;;;;;;;7.57;4.72;;;21.40;15.10;;;;;;5059249;28;20462;-75
2021/08/25 10:37:50;;;;;;;8.98;5.10;;;21.50;14.00;;;;;;5069569;28;20799;-75
2021/08/25 10:40:19;;;;;;;9.07;4.75;;;21.60;13.70;;;;;;5052154;28;20387;-76
2021/08/25 10:42:55;;;;;;;10.05;4.63;;;21.70;12.60;;;;;;5069984;28;20433;-76
2021/08/25 10:45:45;;;;;;;8.70;4.90;;;21.80;12.80;;;;;;5071079;28;20391;-75
2021/08/25 10:48:11;;;;;;;7.90;5.43;;;21.80;12.80;;;;;;5070342;28;20383;-75
2021/08/25 10:50:54;;;;;;;9.25;5.18;;;21.90;13.10;;;;;;5084843;28;20394;-79
2021/08/25 10:53:29;;;;;;;10.75;5.50;;;21.80;12.80;;;;;;5094462;28;20393;-76
2021/08/25 10:56:11;;;;;;;11.32;5.70;;;21.90;12.50;;;;;;5095925;28;20810;-77
2021/08/25 10:58:49;;;;;;;10.27;5.50;;;21.90;12.60;;;;;;5096665;28;20518;-77
2021/08/25 11:01:41;;;;;;;8.10;5.30;;;22.00;12.20;;;;;;5096554;28;20397;-76
2021/08/25 11:04:07;;;;;;;10.05;5.38;;;22.10;13.00;;;;;;5097187;28;20402;-76
2021/08/25 11:06:50;;;;;;;11.20;5.80;;;22.10;13.30;;;;;;5098187;28;20374;-76
2021/08/25 11:09:29;;;;;;;11.25;6.10;;;21.90;13.70;;;;;;5094768;28;20390;-77
2021/08/25 11:11:59;;;;;;;14.48;5.80;;;21.80;14.10;;;;;;5097664;28;20738;-77
2021/08/25 11:14:26;;;;;;;10.95;5.50;;;21.90;12.50;;;;;;5093917;28;20378;-75
2021/08/25 11:17:04;;;;;;;22.50;13.20;;;21.90;11.60;;;;;;5093399;28;20374;-75
2021/08/25 11:19:32;;;;;;;32.50;18.00;;;21.90;12.70;;;;;;5092377;28;20390;-75
2021/08/25 11:22:00;;;;;;;11.32;6.20;;;21.90;13.80;;;;;;5092685;28;20439;-76
2021/08/25 11:24:35;;;;;;;12.88;6.65;;;21.90;12.80;;;;;;5093399;28;20386;-74
2021/08/25 11:27:01;;;;;;;95.53;57.22;;;21.90;12.90;;;;;;5092482;28;20752;-75
2021/08/25 11:29:26;;;;;;;13.40;7.18;;;22.00;14.00;;;;;;5093628;28;20398;-76
2021/08/25 11:31:52;;;;;;;18.55;9.40;;;22.20;13.80;;;;;;5093959;28;20480;-76
2021/08/25 11:34:20;;;;;;;9.88;5.57;;;22.40;13.00;;;;;;5094332;28;20828;-76
2021/08/25 11:36:58;;;;;;;12.30;5.88;;;22.30;12.50;;;;;;5080151;28;20409;-76
2021/08/25 11:39:25;;;;;;;12.97;6.00;;;22.30;12.30;;;;;;5058991;28;20438;-77
2021/08/25 11:41:51;;;;;;;29.90;17.90;;;22.30;12.50;;;;;;5094031;28;20474;-77
2021/08/25 11:44:38;;;;;;;18.35;11.10;;;22.30;12.30;;;;;;5094581;28;20424;-77
2021/08/25 11:47:15;;;;;;;10.00;6.07;;;22.40;12.30;;;;;;5094242;28;20857;-77
2021/08/25 11:49:43;;;;;;;11.13;6.32;;;22.40;11.00;;;;;;5094322;28;20389;-76
2021/08/25 11:52:10;;;;;;;13.07;6.30;;;22.40;12.10;;;;;;5092979;28;20378;-77
2021/08/25 11:54:40;;;;;;;12.57;6.10;;;22.50;12.20;;;;;;5076737;28;20390;-77
2021/08/25 11:57:11;;;;;;;12.07;7.13;;;22.30;12.10;;;;;;5097955;28;20490;-77
2021/08/25 11:59:57;;;;;;;25.13;11.68;;;22.10;11.00;;;;;;5085992;28;20382;-76
2021/08/25 12:02:24;;;;;;;12.10;6.32;;;22.10;11.60;;;;;;5093566;28;20405;-74
2021/08/25 12:04:49;;;;;;;11.35;6.78;;;22.30;12.00;;;;;;5094117;28;20390;-77
2021/08/25 12:07:17;;;;;;;10.20;6.40;;;22.40;11.30;;;;;;5092410;28;20387;-74
2021/08/25 12:09:43;;;;;;;16.02;6.90;;;22.60;11.20;;;;;;5092593;28;20385;-77
2021/08/25 12:12:09;;;;;;;13.60;6.50;;;22.60;11.40;;;;;;5092987;28;20402;-76
2021/08/25 12:14:51;;;;;;;14.23;6.47;;;22.40;11.80;;;;;;5090729;28;20382;-73
2021/08/25 12:17:17;;;;;;;13.57;6.40;;;22.20;12.20;;;;;;5090894;28;20393;-74
2021/08/25 12:19:59;;;;;;;14.95;9.55;;;22.20;12.50;;;;;;5091446;28;20469;-74
2021/08/25 12:22:27;;;;;;;11.25;7.10;;;22.20;12.40;;;;;;5092168;28;20485;-74
2021/08/25 12:24:54;;;;;;;13.85;7.13;;;22.50;12.10;;;;;;5073389;28;20897;-74
2021/08/25 12:27:22;;;;;;;14.48;7.15;;;22.60;12.20;;;;;;5090923;28;20781;-73
2021/08/25 12:29:48;;;;;;;14.27;7.55;;;22.50;12.70;;;;;;5074939;28;20443;-74
2021/08/25 12:32:14;;;;;;;13.40;7.93;;;22.50;12.20;;;;;;5092894;28;20386;-73
2021/08/25 12:35:00;;;;;;;13.88;7.35;;;22.60;12.80;;;;;;5074537;28;20402;-75
2021/08/25 12:37:52;;;;;;;15.68;6.65;;;22.90;13.20;;;;;;5071351;28;20825;-74
2021/08/25 12:40:22;;;;;;;31.73;17.47;;;23.20;11.50;;;;;;5080938;28;20382;-74
2021/08/25 12:42:51;;;;;;;18.15;8.20;;;23.10;11.40;;;;;;5072451;28;20528;-73